Pasha — FAC2780 — position and weather

sailwx.info

Track history (hours):
 
Tides and Currents Weather Stations Pressure Air Temp Water Temp Dewpoint Dewpoint Depression Visibility Wind Speed Wind Dir Waves Ship Positions

Pasha

Last reported at 2017-Aug-20 09:38 UTC. Time now 2017-Nov-22 14:53 UTC.
Position N 47°43' W 003°35'.
Warning: this ship's position is months out of date.

Length 11 m.

Type: Pleasure craft. MMSI: 227268790.

Date/timePositionNaut miles runAvg speedWind from/ knotsBaromVisibWave heightAir tempDewpointWater temp
2017-Aug-20 09:38N 47°43' W 003°35'211.1
2017-Aug-20 09:29N 47°42' W 003°32'511.3
2017-Aug-20 09:00N 47°41' W 003°25'611.4
2017-Aug-20 08:30N 47°37' W 003°19'611.3
2017-Aug-20 08:00N 47°32' W 003°14'611.4
2017-Aug-20 07:30N 47°28' W 003°08'5 9.3
2017-Aug-20 07:00N 47°27' W 003°01'4 7.5
2017-Aug-20 06:29N 47°29' W 003°06'0 0.0
2017-Aug-19 16:58N 47°29' W 003°06'0 0.0
2017-Aug-19 16:28N 47°29' W 003°06'0 0.0
2017-Aug-19 15:58N 47°29' W 003°06'0 0.0
2017-Aug-19 15:28N 47°29' W 003°06'0 0.0
2017-Aug-19 14:58N 47°29' W 003°06'0 0.0
2017-Aug-18 15:45N 47°29' W 003°06'0 0.0
2017-Aug-18 15:27N 47°29' W 003°06'0 0.0
2017-Aug-18 15:00N 47°29' W 003°06'  
2017-Aug-16 10:51N 47°29' W 003°06'1 1.6
2017-Aug-16 10:30N 47°30' W 003°05'  
2017-Aug-11 09:07N 46°34' W 001°58'210.2
2017-Aug-11 08:55N 46°32' W 001°56'4 9.7
2017-Aug-11 08:30N 46°30' W 001°52'3 6.2
2017-Aug-11 08:00N 46°29' W 001°47'1 1.2
2017-Aug-11 07:29N 46°30' W 001°48'0 0.0
2017-Aug-11 06:59N 46°30' W 001°48'0 0.0
2017-Aug-11 06:29N 46°30' W 001°48'0 0.0
2017-Aug-11 05:59N 46°30' W 001°48'0 0.0
2017-Aug-11 05:29N 46°30' W 001°48'0 0.0
2017-Aug-11 04:59N 46°30' W 001°48'0 0.0
2017-Aug-11 04:29N 46°30' W 001°48'0 0.0
2017-Aug-11 03:59N 46°30' W 001°48'0 0.0
2017-Aug-11 03:29N 46°30' W 001°48'0 0.0
2017-Aug-11 02:59N 46°30' W 001°48'0 0.0
2017-Aug-11 02:29N 46°30' W 001°48'0 0.0
2017-Aug-11 01:59N 46°30' W 001°48'0 0.0
2017-Aug-11 01:29N 46°30' W 001°48'0 0.0
2017-Aug-11 00:59N 46°30' W 001°48'0 0.0
2017-Aug-11 00:29N 46°30' W 001°48'0 0.0
2017-Aug-10 23:59N 46°30' W 001°48'0 0.0
2017-Aug-10 23:29N 46°30' W 001°48'0 0.0
2017-Aug-10 22:59N 46°30' W 001°48'0 0.0
2017-Aug-10 22:29N 46°30' W 001°48'0 0.0
2017-Aug-10 21:59N 46°30' W 001°48'0 0.0
2017-Aug-10 21:29N 46°30' W 001°48'0 0.0
2017-Aug-10 20:59N 46°30' W 001°48'0 0.0
2017-Aug-10 20:29N 46°30' W 001°48'0 0.0
2017-Aug-10 19:59N 46°30' W 001°48'0 0.0
2017-Aug-10 19:29N 46°30' W 001°48'0 0.0
2017-Aug-10 18:59N 46°30' W 001°48'0 0.0
2017-Aug-10 18:29N 46°30' W 001°48'0 0.0
2017-Aug-10 17:59N 46°30' W 001°48'0 0.0
2017-Aug-10 17:29N 46°30' W 001°48'0 0.0
2017-Aug-10 16:59N 46°30' W 001°48'0 0.0
2017-Aug-10 16:29N 46°30' W 001°48'0 0.0
2017-Aug-10 15:59N 46°30' W 001°48'0 0.0
2017-Aug-10 15:29N 46°30' W 001°48'0 0.0
2017-Aug-10 14:59N 46°30' W 001°48'0 0.0
2017-Aug-10 14:29N 46°30' W 001°48'0 0.0
2017-Aug-10 13:56N 46°30' W 001°48'0 0.0
2017-Aug-10 13:29N 46°30' W 001°48'0 0.0
2017-Aug-10 12:59N 46°30' W 001°48'0 0.0
2017-Aug-10 12:29N 46°30' W 001°48'0 0.0
2017-Aug-10 11:59N 46°30' W 001°48'0 0.0
2017-Aug-10 11:29N 46°30' W 001°48'0 0.0
2017-Aug-10 10:59N 46°30' W 001°48'0 0.0
2017-Aug-10 10:29N 46°30' W 001°48'0 0.0
2017-Aug-10 09:59N 46°30' W 001°48'  
Track history (hours):
 
Tides and Currents Weather Stations Pressure Air Temp Water Temp Dewpoint Dewpoint Depression Visibility Wind Speed Wind Dir Waves Ship Positions

Pasha

Last reported at 2017-Aug-20 09:38 UTC. Time now 2017-Nov-22 14:53 UTC.
Position N 47°43' W 003°35'.
Warning: this ship's position is months out of date.

Length 11 m.

Type: Pleasure craft. MMSI: 227268790.

Date/timePositionNaut miles runAvg speedWind from/ knotsBaromVisibWave heightAir tempDewpointWater temp
2017-Aug-20 09:38N 47°43' W 003°35'211.1
2017-Aug-20 09:29N 47°42' W 003°32'511.3
2017-Aug-20 09:00N 47°41' W 003°25'611.4
2017-Aug-20 08:30N 47°37' W 003°19'611.3
2017-Aug-20 08:00N 47°32' W 003°14'611.4
2017-Aug-20 07:30N 47°28' W 003°08'5 9.3
2017-Aug-20 07:00N 47°27' W 003°01'4 7.5
2017-Aug-20 06:29N 47°29' W 003°06'0 0.0
2017-Aug-19 16:58N 47°29' W 003°06'0 0.0
2017-Aug-19 16:28N 47°29' W 003°06'0 0.0
2017-Aug-19 15:58N 47°29' W 003°06'0 0.0
2017-Aug-19 15:28N 47°29' W 003°06'0 0.0
2017-Aug-19 14:58N 47°29' W 003°06'0 0.0
2017-Aug-18 15:45N 47°29' W 003°06'0 0.0
2017-Aug-18 15:27N 47°29' W 003°06'0 0.0
2017-Aug-18 15:00N 47°29' W 003°06'  
2017-Aug-16 10:51N 47°29' W 003°06'1 1.6
2017-Aug-16 10:30N 47°30' W 003°05'  
2017-Aug-11 09:07N 46°34' W 001°58'210.2
2017-Aug-11 08:55N 46°32' W 001°56'4 9.7
2017-Aug-11 08:30N 46°30' W 001°52'3 6.2
2017-Aug-11 08:00N 46°29' W 001°47'1 1.2
2017-Aug-11 07:29N 46°30' W 001°48'0 0.0
2017-Aug-11 06:59N 46°30' W 001°48'0 0.0
2017-Aug-11 06:29N 46°30' W 001°48'0 0.0
2017-Aug-11 05:59N 46°30' W 001°48'0 0.0
2017-Aug-11 05:29N 46°30' W 001°48'0 0.0
2017-Aug-11 04:59N 46°30' W 001°48'0 0.0
2017-Aug-11 04:29N 46°30' W 001°48'0 0.0
2017-Aug-11 03:59N 46°30' W 001°48'0 0.0
2017-Aug-11 03:29N 46°30' W 001°48'0 0.0
2017-Aug-11 02:59N 46°30' W 001°48'0 0.0
2017-Aug-11 02:29N 46°30' W 001°48'0 0.0
2017-Aug-11 01:59N 46°30' W 001°48'0 0.0
2017-Aug-11 01:29N 46°30' W 001°48'0 0.0
2017-Aug-11 00:59N 46°30' W 001°48'0 0.0
2017-Aug-11 00:29N 46°30' W 001°48'0 0.0
2017-Aug-10 23:59N 46°30' W 001°48'0 0.0
2017-Aug-10 23:29N 46°30' W 001°48'0 0.0
2017-Aug-10 22:59N 46°30' W 001°48'0 0.0
2017-Aug-10 22:29N 46°30' W 001°48'0 0.0
2017-Aug-10 21:59N 46°30' W 001°48'0 0.0
2017-Aug-10 21:29N 46°30' W 001°48'0 0.0
2017-Aug-10 20:59N 46°30' W 001°48'0 0.0
2017-Aug-10 20:29N 46°30' W 001°48'0 0.0
2017-Aug-10 19:59N 46°30' W 001°48'0 0.0
2017-Aug-10 19:29N 46°30' W 001°48'0 0.0
2017-Aug-10 18:59N 46°30' W 001°48'0 0.0
2017-Aug-10 18:29N 46°30' W 001°48'0 0.0
2017-Aug-10 17:59N 46°30' W 001°48'0 0.0
2017-Aug-10 17:29N 46°30' W 001°48'0 0.0
2017-Aug-10 16:59N 46°30' W 001°48'0 0.0
2017-Aug-10 16:29N 46°30' W 001°48'0 0.0
2017-Aug-10 15:59N 46°30' W 001°48'0 0.0
2017-Aug-10 15:29N 46°30' W 001°48'0 0.0
2017-Aug-10 14:59N 46°30' W 001°48'0 0.0
2017-Aug-10 14:29N 46°30' W 001°48'0 0.0
2017-Aug-10 13:56N 46°30' W 001°48'0 0.0
2017-Aug-10 13:29N 46°30' W 001°48'0 0.0
2017-Aug-10 12:59N 46°30' W 001°48'0 0.0
2017-Aug-10 12:29N 46°30' W 001°48'0 0.0
2017-Aug-10 11:59N 46°30' W 001°48'0 0.0
2017-Aug-10 11:29N 46°30' W 001°48'0 0.0
2017-Aug-10 10:59N 46°30' W 001°48'0 0.0
2017-Aug-10 10:29N 46°30' W 001°48'0 0.0
2017-Aug-10 09:59N 46°30' W 001°48'  

Dump ship's entire track history